sensor_id;sensor_type;location;lat;lon;timestamp;pressure;altitude;pressure_sealevel;temperature;humidity
64192;BME280;50497;50.720;-2.084;2022-07-03T00:01:07;101920.56;;;11.83;100.00
64192;BME280;50497;50.720;-2.084;2022-07-03T00:03:32;101917.78;;;11.87;100.00
64192;BME280;50497;50.720;-2.084;2022-07-03T00:05:58;101921.25;;;11.90;100.00
64192;BME280;50497;50.720;-2.084;2022-07-03T00:08:23;101916.81;;;11.89;100.00
64192;BME280;50497;50.720;-2.084;2022-07-03T00:10:49;101926.28;;;12.01;100.00
64192;BME280;50497;50.720;-2.084;2022-07-03T00:13:14;101923.75;;;11.96;100.00
64192;BME280;50497;50.720;-2.084;2022-07-03T00:15:40;101929.72;;;12.05;100.00
64192;BME280;50497;50.720;-2.084;2022-07-03T00:18:06;101921.22;;;11.92;100.00
64192;BME280;50497;50.720;-2.084;2022-07-03T00:20:45;101926.25;;;12.02;100.00
64192;BME280;50497;50.720;-2.084;2022-07-03T00:23:16;101917.56;;;11.94;100.00
64192;BME280;50497;50.720;-2.084;2022-07-03T00:25:43;101914.44;;;11.80;100.00
64192;BME280;50497;50.720;-2.084;2022-07-03T00:28:09;101917.19;;;11.78;100.00
64192;BME280;50497;50.720;-2.084;2022-07-03T00:30:35;101898.88;;;11.64;100.00
64192;BME280;50497;50.720;-2.084;2022-07-03T00:33:02;101911.31;;;11.67;100.00
64192;BME280;50497;50.720;-2.084;2022-07-03T00:35:33;101907.13;;;11.58;100.00
64192;BME280;50497;50.720;-2.084;2022-07-03T00:38:00;101903.84;;;11.49;100.00
64192;BME280;50497;50.720;-2.084;2022-07-03T00:40:26;101896.75;;;11.48;100.00
64192;BME280;50497;50.720;-2.084;2022-07-03T00:42:52;101905.56;;;11.51;100.00
64192;BME280;50497;50.720;-2.084;2022-07-03T00:45:20;101905.78;;;11.45;100.00
64192;BME280;50497;50.720;-2.084;2022-07-03T00:47:46;101913.75;;;11.46;100.00
64192;BME280;50497;50.720;-2.084;2022-07-03T00:50:13;101908.53;;;11.42;100.00
64192;BME280;50497;50.720;-2.084;2022-07-03T00:52:45;101907.81;;;11.37;100.00
64192;BME280;50497;50.720;-2.084;2022-07-03T00:55:15;101900.19;;;11.24;100.00
64192;BME280;50497;50.720;-2.084;2022-07-03T00:57:46;101903.81;;;11.22;100.00
64192;BME280;50497;50.720;-2.084;2022-07-03T01:00:16;101899.47;;;11.19;100.00
64192;BME280;50497;50.720;-2.084;2022-07-03T01:10:54;101905.91;;;11.12;100.00
64192;BME280;50497;50.720;-2.084;2022-07-03T01:16:24;101915.38;;;11.24;100.00
64192;BME280;50497;50.720;-2.084;2022-07-03T01:24:12;101931.66;;;11.46;100.00
64192;BME280;50497;50.720;-2.084;2022-07-03T01:26:45;101929.69;;;11.51;100.00
64192;BME280;50497;50.720;-2.084;2022-07-03T01:29:16;101921.28;;;11.62;100.00
64192;BME280;50497;50.720;-2.084;2022-07-03T01:31:44;101900.94;;;11.56;100.00
64192;BME280;50497;50.720;-2.084;2022-07-03T01:34:13;101914.19;;;11.61;100.00
64192;BME280;50497;50.720;-2.084;2022-07-03T01:36:43;101903.38;;;11.64;100.00
64192;BME280;50497;50.720;-2.084;2022-07-03T01:39:11;101920.09;;;11.72;100.00
64192;BME280;50497;50.720;-2.084;2022-07-03T01:41:37;101911.19;;;11.70;100.00
64192;BME280;50497;50.720;-2.084;2022-07-03T01:44:03;101913.69;;;11.76;100.00
64192;BME280;50497;50.720;-2.084;2022-07-03T01:46:32;101919.72;;;11.83;100.00
64192;BME280;50497;50.720;-2.084;2022-07-03T01:48:59;101920.81;;;11.77;100.00
64192;BME280;50497;50.720;-2.084;2022-07-03T01:51:25;101919.50;;;11.89;100.00
64192;BME280;50497;50.720;-2.084;2022-07-03T01:53:52;101918.66;;;11.89;100.00
64192;BME280;50497;50.720;-2.084;2022-07-03T01:56:21;101916.47;;;12.00;100.00
64192;BME280;50497;50.720;-2.084;2022-07-03T01:58:48;101923.59;;;12.01;100.00
64192;BME280;50497;50.720;-2.084;2022-07-03T02:03:49;101922.78;;;11.99;100.00
64192;BME280;50497;50.720;-2.084;2022-07-03T02:06:40;101925.91;;;12.12;100.00
64192;BME280;50497;50.720;-2.084;2022-07-03T02:09:09;101927.72;;;12.11;100.00
64192;BME280;50497;50.720;-2.084;2022-07-03T02:11:40;101912.81;;;12.02;100.00
64192;BME280;50497;50.720;-2.084;2022-07-03T02:14:17;101927.78;;;12.10;100.00
64192;BME280;50497;50.720;-2.084;2022-07-03T02:19:54;101913.34;;;12.14;100.00
64192;BME280;50497;50.720;-2.084;2022-07-03T02:22:31;101921.53;;;12.09;100.00
64192;BME280;50497;50.720;-2.084;2022-07-03T02:25:16;101917.59;;;12.19;100.00
64192;BME280;50497;50.720;-2.084;2022-07-03T02:27:49;101903.41;;;12.16;100.00
64192;BME280;50497;50.720;-2.084;2022-07-03T02:30:16;101923.72;;;12.23;100.00
64192;BME280;50497;50.720;-2.084;2022-07-03T02:32:48;101912.44;;;12.13;100.00
64192;BME280;50497;50.720;-2.084;2022-07-03T02:35:21;101916.53;;;12.25;100.00
64192;BME280;50497;50.720;-2.084;2022-07-03T02:37:59;101919.41;;;12.19;100.00
64192;BME280;50497;50.720;-2.084;2022-07-03T02:40:34;101911.16;;;12.25;100.00
64192;BME280;50497;50.720;-2.084;2022-07-03T02:48:40;101920.66;;;12.34;100.00
64192;BME280;50497;50.720;-2.084;2022-07-03T02:51:13;101926.09;;;12.32;100.00
64192;BME280;50497;50.720;-2.084;2022-07-03T02:53:45;101923.19;;;12.38;100.00
64192;BME280;50497;50.720;-2.084;2022-07-03T02:56:19;101929.22;;;12.45;100.00
64192;BME280;50497;50.720;-2.084;2022-07-03T02:59:37;101918.44;;;12.47;100.00
64192;BME280;50497;50.720;-2.084;2022-07-03T03:02:13;101927.50;;;12.43;100.00
64192;BME280;50497;50.720;-2.084;2022-07-03T03:04:43;101916.72;;;12.44;100.00
64192;BME280;50497;50.720;-2.084;2022-07-03T03:07:21;101924.81;;;12.43;100.00
64192;BME280;50497;50.720;-2.084;2022-07-03T03:09:51;101921.13;;;12.47;100.00
64192;BME280;50497;50.720;-2.084;2022-07-03T03:12:25;101931.97;;;12.44;100.00
64192;BME280;50497;50.720;-2.084;2022-07-03T03:15:01;101925.88;;;12.38;100.00
64192;BME280;50497;50.720;-2.084;2022-07-03T03:17:35;101910.09;;;12.29;100.00
64192;BME280;50497;50.720;-2.084;2022-07-03T03:20:02;101911.47;;;12.41;100.00
64192;BME280;50497;50.720;-2.084;2022-07-03T03:22:59;101919.56;;;12.39;100.00
64192;BME280;50497;50.720;-2.084;2022-07-03T03:25:32;101911.47;;;12.41;100.00
64192;BME280;50497;50.720;-2.084;2022-07-03T03:27:58;101906.09;;;12.41;100.00
64192;BME280;50497;50.720;-2.084;2022-07-03T03:30:24;101925.16;;;12.59;100.00
64192;BME280;50497;50.720;-2.084;2022-07-03T03:32:50;101916.09;;;12.61;100.00
64192;BME280;50497;50.720;-2.084;2022-07-03T03:35:15;101915.06;;;12.65;100.00
64192;BME280;50497;50.720;-2.084;2022-07-03T03:37:41;101902.56;;;12.64;100.00
64192;BME280;50497;50.720;-2.084;2022-07-03T03:40:07;101912.97;;;12.73;100.00
64192;BME280;50497;50.720;-2.084;2022-07-03T03:42:33;101915.72;;;12.72;100.00
64192;BME280;50497;50.720;-2.084;2022-07-03T03:44:58;101904.22;;;12.68;100.00
64192;BME280;50497;50.720;-2.084;2022-07-03T03:47:24;101896.44;;;12.61;100.00
64192;BME280;50497;50.720;-2.084;2022-07-03T03:49:50;101898.00;;;12.66;100.00
64192;BME280;50497;50.720;-2.084;2022-07-03T03:52:16;101904.22;;;12.68;100.00
64192;BME280;50497;50.720;-2.084;2022-07-03T03:54:41;101919.19;;;12.74;100.00
64192;BME280;50497;50.720;-2.084;2022-07-03T03:59:42;101919.84;;;12.81;100.00
64192;BME280;50497;50.720;-2.084;2022-07-03T04:02:08;101921.47;;;12.85;100.00
64192;BME280;50497;50.720;-2.084;2022-07-03T04:04:33;101915.41;;;12.80;100.00
64192;BME280;50497;50.720;-2.084;2022-07-03T04:06:59;101913.66;;;12.79;100.00
64192;BME280;50497;50.720;-2.084;2022-07-03T04:09:24;101908.41;;;12.75;100.00
64192;BME280;50497;50.720;-2.084;2022-07-03T04:11:50;101929.56;;;12.83;100.00
64192;BME280;50497;50.720;-2.084;2022-07-03T04:14:15;101914.53;;;12.79;100.00
64192;BME280;50497;50.720;-2.084;2022-07-03T04:16:41;101919.63;;;12.87;100.00
64192;BME280;50497;50.720;-2.084;2022-07-03T04:19:06;101910.97;;;12.79;100.00
64192;BME280;50497;50.720;-2.084;2022-07-03T04:21:31;101909.97;;;12.81;100.00
64192;BME280;50497;50.720;-2.084;2022-07-03T04:23:57;101925.63;;;12.93;100.00
64192;BME280;50497;50.720;-2.084;2022-07-03T04:26:23;101919.19;;;12.98;100.00
64192;BME280;50497;50.720;-2.084;2022-07-03T04:28:48;101917.31;;;13.00;100.00
64192;BME280;50497;50.720;-2.084;2022-07-03T04:31:14;101907.69;;;12.94;100.00
64192;BME280;50497;50.720;-2.084;2022-07-03T04:33:39;101919.13;;;12.99;100.00
64192;BME280;50497;50.720;-2.084;2022-07-03T04:36:05;101919.13;;;12.99;100.00
64192;BME280;50497;50.720;-2.084;2022-07-03T04:38:31;101903.00;;;12.99;100.00
64192;BME280;50497;50.720;-2.084;2022-07-03T04:40:56;101924.41;;;13.02;100.00
64192;BME280;50497;50.720;-2.084;2022-07-03T04:43:22;101923.59;;;13.00;100.00
64192;BME280;50497;50.720;-2.084;2022-07-03T04:45:47;101912.78;;;13.02;100.00
64192;BME280;50497;50.720;-2.084;2022-07-03T04:48:13;101921.47;;;13.08;100.00
64192;BME280;50497;50.720;-2.084;2022-07-03T04:50:38;101917.38;;;13.22;100.00
64192;BME280;50497;50.720;-2.084;2022-07-03T04:53:04;101923.56;;;13.24;100.00
64192;BME280;50497;50.720;-2.084;2022-07-03T04:55:29;101927.94;;;13.26;100.00
64192;BME280;50497;50.720;-2.084;2022-07-03T04:57:55;101920.56;;;13.31;100.00
64192;BME280;50497;50.720;-2.084;2022-07-03T05:00:20;101918.81;;;13.30;100.00
64192;BME280;50497;50.720;-2.084;2022-07-03T05:02:46;101924.31;;;13.27;100.00
64192;BME280;50497;50.720;-2.084;2022-07-03T05:05:11;101928.69;;;13.30;100.00
64192;BME280;50497;50.720;-2.084;2022-07-03T05:07:36;101930.44;;;13.31;100.00
64192;BME280;50497;50.720;-2.084;2022-07-03T05:10:02;101928.69;;;13.30;100.00
64192;BME280;50497;50.720;-2.084;2022-07-03T05:12:28;101931.28;;;13.33;100.00
64192;BME280;50497;50.720;-2.084;2022-07-03T05:14:53;101918.97;;;13.26;100.00
64192;BME280;50497;50.720;-2.084;2022-07-03T05:17:19;101925.31;;;13.25;100.00
64192;BME280;50497;50.720;-2.084;2022-07-03T05:19:44;101932.22;;;13.32;100.00
64192;BME280;50497;50.720;-2.084;2022-07-03T05:22:10;101934.34;;;13.22;100.00
64192;BME280;50497;50.720;-2.084;2022-07-03T05:24:35;101942.38;;;13.24;100.00
64192;BME280;50497;50.720;-2.084;2022-07-03T05:27:01;101925.78;;;13.12;100.00
64192;BME280;50497;50.720;-2.084;2022-07-03T05:29:27;101924.28;;;13.05;100.00
64192;BME280;50497;50.720;-2.084;2022-07-03T05:31:52;101922.41;;;13.07;100.00
64192;BME280;50497;50.720;-2.084;2022-07-03T05:34:18;101939.34;;;13.09;100.00
64192;BME280;50497;50.720;-2.084;2022-07-03T05:36:43;101941.78;;;13.16;100.00
64192;BME280;50497;50.720;-2.084;2022-07-03T05:39:09;101939.84;;;13.19;100.00
64192;BME280;50497;50.720;-2.084;2022-07-03T05:41:53;101949.22;;;13.33;100.00
64192;BME280;50497;50.720;-2.084;2022-07-03T05:44:18;101943.25;;;13.48;100.00
64192;BME280;50497;50.720;-2.084;2022-07-03T05:46:43;101937.72;;;13.51;100.00
64192;BME280;50497;50.720;-2.084;2022-07-03T05:49:09;101943.34;;;13.67;100.00
64192;BME280;50497;50.720;-2.084;2022-07-03T05:51:34;101950.78;;;13.82;100.00
64192;BME280;50497;50.720;-2.084;2022-07-03T05:54:00;101933.59;;;13.86;100.00
64192;BME280;50497;50.720;-2.084;2022-07-03T05:56:25;101951.09;;;13.97;100.00
64192;BME280;50497;50.720;-2.084;2022-07-03T05:58:51;101931.16;;;14.01;100.00
64192;BME280;50497;50.720;-2.084;2022-07-03T06:01:16;101949.50;;;14.34;100.00
64192;BME280;50497;50.720;-2.084;2022-07-03T06:03:41;101945.25;;;14.49;100.00
64192;BME280;50497;50.720;-2.084;2022-07-03T06:06:07;101926.63;;;14.65;100.00
64192;BME280;50497;50.720;-2.084;2022-07-03T06:08:33;101923.00;;;14.85;100.00
64192;BME280;50497;50.720;-2.084;2022-07-03T06:10:58;101928.31;;;15.05;100.00
64192;BME280;50497;50.720;-2.084;2022-07-03T06:13:23;101933.81;;;15.23;100.00
64192;BME280;50497;50.720;-2.084;2022-07-03T06:15:49;101927.00;;;15.33;100.00
64192;BME280;50497;50.720;-2.084;2022-07-03T06:18:14;101942.84;;;15.41;100.00
64192;BME280;50497;50.720;-2.084;2022-07-03T06:20:40;101943.25;;;15.31;100.00
64192;BME280;50497;50.720;-2.084;2022-07-03T06:23:05;101930.22;;;15.22;100.00
64192;BME280;50497;50.720;-2.084;2022-07-03T06:25:31;101932.91;;;15.22;100.00
64192;BME280;50497;50.720;-2.084;2022-07-03T06:27:56;101922.41;;;15.54;100.00
64192;BME280;50497;50.720;-2.084;2022-07-03T06:30:22;101927.88;;;16.24;100.00
64192;BME280;50497;50.720;-2.084;2022-07-03T06:32:47;101924.47;;;16.89;100.00
64192;BME280;50497;50.720;-2.084;2022-07-03T06:35:12;101920.38;;;17.29;100.00
64192;BME280;50497;50.720;-2.084;2022-07-03T06:37:38;101920.25;;;17.79;100.00
64192;BME280;50497;50.720;-2.084;2022-07-03T06:40:04;101926.28;;;18.14;100.00
64192;BME280;50497;50.720;-2.084;2022-07-03T06:42:30;101925.59;;;18.10;100.00
64192;BME280;50497;50.720;-2.084;2022-07-03T06:44:55;101931.19;;;18.07;100.00
64192;BME280;50497;50.720;-2.084;2022-07-03T06:47:21;101934.22;;;18.17;100.00
64192;BME280;50497;50.720;-2.084;2022-07-03T06:49:46;101936.69;;;18.36;100.00
64192;BME280;50497;50.720;-2.084;2022-07-03T06:52:12;101935.59;;;18.24;100.00
64192;BME280;50497;50.720;-2.084;2022-07-03T06:54:37;101932.16;;;18.65;100.00
64192;BME280;50497;50.720;-2.084;2022-07-03T06:57:05;101938.91;;;18.44;100.00
64192;BME280;50497;50.720;-2.084;2022-07-03T06:59:30;101953.50;;;18.27;100.00
64192;BME280;50497;50.720;-2.084;2022-07-03T07:01:56;101940.38;;;18.05;100.00
64192;BME280;50497;50.720;-2.084;2022-07-03T07:04:21;101944.06;;;17.88;100.00
64192;BME280;50497;50.720;-2.084;2022-07-03T07:06:46;101949.84;;;18.42;100.00
64192;BME280;50497;50.720;-2.084;2022-07-03T07:09:12;101955.34;;;18.86;100.00
64192;BME280;50497;50.720;-2.084;2022-07-03T07:11:37;101952.78;;;18.82;100.00
64192;BME280;50497;50.720;-2.084;2022-07-03T07:14:03;101942.41;;;18.46;100.00
64192;BME280;50497;50.720;-2.084;2022-07-03T07:16:28;101958.88;;;18.43;100.00
64192;BME280;50497;50.720;-2.084;2022-07-03T07:18:54;101956.16;;;18.57;100.00
64192;BME280;50497;50.720;-2.084;2022-07-03T07:21:20;101957.47;;;18.36;100.00
64192;BME280;50497;50.720;-2.084;2022-07-03T07:23:45;101937.38;;;18.40;100.00
64192;BME280;50497;50.720;-2.084;2022-07-03T07:26:11;101946.06;;;18.31;100.00
64192;BME280;50497;50.720;-2.084;2022-07-03T07:28:37;101935.16;;;18.02;100.00
64192;BME280;50497;50.720;-2.084;2022-07-03T07:31:02;101944.34;;;17.67;100.00
64192;BME280;50497;50.720;-2.084;2022-07-03T07:33:28;101946.13;;;17.68;100.00
64192;BME280;50497;50.720;-2.084;2022-07-03T07:35:53;101947.19;;;17.50;100.00
64192;BME280;50497;50.720;-2.084;2022-07-03T07:38:19;101956.97;;;17.36;100.00
64192;BME280;50497;50.720;-2.084;2022-07-03T07:40:45;101948.31;;;17.62;100.00
64192;BME280;50497;50.720;-2.084;2022-07-03T07:43:11;101961.13;;;17.58;100.00
64192;BME280;50497;50.720;-2.084;2022-07-03T07:45:36;101954.50;;;17.64;100.00
64192;BME280;50497;50.720;-2.084;2022-07-03T07:48:06;101963.34;;;18.14;100.00
64192;BME280;50497;50.720;-2.084;2022-07-03T07:50:32;101960.19;;;18.21;100.00
64192;BME280;50497;50.720;-2.084;2022-07-03T07:52:57;101946.81;;;18.92;100.00
64192;BME280;50497;50.720;-2.084;2022-07-03T07:55:23;101949.84;;;19.43;100.00
64192;BME280;50497;50.720;-2.084;2022-07-03T07:57:51;101953.47;;;19.98;100.00
64192;BME280;50497;50.720;-2.084;2022-07-03T08:00:19;101946.50;;;20.60;100.00
64192;BME280;50497;50.720;-2.084;2022-07-03T08:02:46;101938.53;;;21.08;100.00
64192;BME280;50497;50.720;-2.084;2022-07-03T08:05:30;101930.72;;;21.40;100.00
64192;BME280;50497;50.720;-2.084;2022-07-03T08:08:07;101946.22;;;21.27;100.00
64192;BME280;50497;50.720;-2.084;2022-07-03T08:10:40;101947.94;;;21.28;100.00
64192;BME280;50497;50.720;-2.084;2022-07-03T08:13:06;101944.22;;;20.54;100.00
64192;BME280;50497;50.720;-2.084;2022-07-03T08:15:32;101949.19;;;19.39;100.00
64192;BME280;50497;50.720;-2.084;2022-07-03T08:17:58;101959.41;;;19.07;100.00
64192;BME280;50497;50.720;-2.084;2022-07-03T08:20:23;101947.00;;;18.74;100.00
64192;BME280;50497;50.720;-2.084;2022-07-03T08:22:49;101950.97;;;19.12;100.00
64192;BME280;50497;50.720;-2.084;2022-07-03T08:25:15;101948.00;;;20.38;100.00
64192;BME280;50497;50.720;-2.084;2022-07-03T08:27:40;101932.81;;;21.37;100.00
64192;BME280;50497;50.720;-2.084;2022-07-03T08:30:06;101938.78;;;21.42;100.00
64192;BME280;50497;50.720;-2.084;2022-07-03T08:32:32;101936.50;;;20.73;100.00
64192;BME280;50497;50.720;-2.084;2022-07-03T08:34:57;101943.41;;;21.29;100.00
64192;BME280;50497;50.720;-2.084;2022-07-03T08:37:22;101938.63;;;21.81;100.00
64192;BME280;50497;50.720;-2.084;2022-07-03T08:39:48;101937.63;;;22.06;100.00
64192;BME280;50497;50.720;-2.084;2022-07-03T08:42:13;101936.56;;;22.89;100.00
64192;BME280;50497;50.720;-2.084;2022-07-03T08:44:42;101926.66;;;22.88;100.00
64192;BME280;50497;50.720;-2.084;2022-07-03T08:47:11;101933.22;;;22.27;100.00
64192;BME280;50497;50.720;-2.084;2022-07-03T08:49:37;101930.97;;;21.86;100.00
64192;BME280;50497;50.720;-2.084;2022-07-03T08:52:03;101940.94;;;21.00;100.00
64192;BME280;50497;50.720;-2.084;2022-07-03T08:54:32;101942.50;;;20.00;100.00
64192;BME280;50497;50.720;-2.084;2022-07-03T08:56:59;101942.09;;;20.19;100.00
64192;BME280;50497;50.720;-2.084;2022-07-03T08:59:27;101933.03;;;20.97;100.00
64192;BME280;50497;50.720;-2.084;2022-07-03T09:01:57;101937.34;;;21.12;100.00
64192;BME280;50497;50.720;-2.084;2022-07-03T09:04:23;101941.31;;;20.82;100.00
64192;BME280;50497;50.720;-2.084;2022-07-03T09:06:49;101947.00;;;20.26;100.00
64192;BME280;50497;50.720;-2.084;2022-07-03T09:09:15;101936.44;;;20.22;100.00
64192;BME280;50497;50.720;-2.084;2022-07-03T09:11:44;101951.00;;;20.08;100.00
64192;BME280;50497;50.720;-2.084;2022-07-03T09:14:11;101944.16;;;19.75;100.00
64192;BME280;50497;50.720;-2.084;2022-07-03T09:16:37;101948.47;;;19.50;100.00
64192;BME280;50497;50.720;-2.084;2022-07-03T09:19:03;101954.28;;;19.02;100.00
64192;BME280;50497;50.720;-2.084;2022-07-03T09:21:39;101944.16;;;19.19;100.00
64192;BME280;50497;50.720;-2.084;2022-07-03T09:24:09;101948.56;;;19.49;100.00
64192;BME280;50497;50.720;-2.084;2022-07-03T09:26:36;101942.94;;;20.06;100.00
64192;BME280;50497;50.720;-2.084;2022-07-03T09:29:14;101935.66;;;20.85;100.00
64192;BME280;50497;50.720;-2.084;2022-07-03T09:31:39;101935.25;;;22.01;100.00
64192;BME280;50497;50.720;-2.084;2022-07-03T09:34:06;101931.09;;;22.89;100.00
64192;BME280;50497;50.720;-2.084;2022-07-03T09:42:02;101948.78;;;21.04;100.00
64192;BME280;50497;50.720;-2.084;2022-07-03T09:44:34;101932.06;;;20.72;100.00
64192;BME280;50497;50.720;-2.084;2022-07-03T09:57:30;101925.63;;;22.44;100.00
64192;BME280;50497;50.720;-2.084;2022-07-03T10:03:04;101932.34;;;24.48;82.06
64192;BME280;50497;50.720;-2.084;2022-07-03T10:05:33;101933.31;;;24.16;85.76
64192;BME280;50497;50.720;-2.084;2022-07-03T10:08:09;101939.06;;;23.26;92.15
64192;BME280;50497;50.720;-2.084;2022-07-03T10:10:41;101938.53;;;22.64;99.17
64192;BME280;50497;50.720;-2.084;2022-07-03T10:13:07;101946.94;;;21.79;100.00
64192;BME280;50497;50.720;-2.084;2022-07-03T10:15:34;101961.81;;;21.25;100.00
64192;BME280;50497;50.720;-2.084;2022-07-03T10:18:12;101949.69;;;21.29;100.00
64192;BME280;50497;50.720;-2.084;2022-07-03T10:20:40;101951.56;;;21.66;98.21
64192;BME280;50497;50.720;-2.084;2022-07-03T10:23:06;101950.66;;;22.49;99.23
64192;BME280;50497;50.720;-2.084;2022-07-03T10:25:32;101949.56;;;22.51;97.35
64192;BME280;50497;50.720;-2.084;2022-07-03T10:27:58;101959.06;;;22.10;100.00
64192;BME280;50497;50.720;-2.084;2022-07-03T10:30:25;101954.00;;;21.57;100.00
64192;BME280;50497;50.720;-2.084;2022-07-03T10:32:53;101963.41;;;21.28;100.00
64192;BME280;50497;50.720;-2.084;2022-07-03T10:35:43;101960.78;;;21.76;100.00
64192;BME280;50497;50.720;-2.084;2022-07-03T10:38:22;101970.28;;;22.77;100.00
64192;BME280;50497;50.720;-2.084;2022-07-03T10:41:04;101948.34;;;23.35;97.54
64192;BME280;50497;50.720;-2.084;2022-07-03T10:43:51;101951.72;;;23.16;96.10
64192;BME280;50497;50.720;-2.084;2022-07-03T10:46:36;101959.78;;;23.17;95.09
64192;BME280;50497;50.720;-2.084;2022-07-03T10:49:05;101962.38;;;22.96;96.18
64192;BME280;50497;50.720;-2.084;2022-07-03T11:15:27;101971.91;;;21.23;100.00
64192;BME280;50497;50.720;-2.084;2022-07-03T11:26:00;101998.31;;;20.71;100.00
64192;BME280;50497;50.720;-2.084;2022-07-03T11:36:11;102001.22;;;20.15;100.00
64192;BME280;50497;50.720;-2.084;2022-07-03T11:38:37;102008.09;;;19.93;100.00
64192;BME280;50497;50.720;-2.084;2022-07-03T11:41:07;102006.09;;;19.68;100.00
64192;BME280;50497;50.720;-2.084;2022-07-03T11:43:33;102027.38;;;19.76;100.00
64192;BME280;50497;50.720;-2.084;2022-07-03T11:46:03;102019.78;;;19.67;100.00
64192;BME280;50497;50.720;-2.084;2022-07-03T11:48:30;102000.19;;;20.03;100.00
64192;BME280;50497;50.720;-2.084;2022-07-03T11:51:02;102022.59;;;20.34;100.00
64192;BME280;50497;50.720;-2.084;2022-07-03T11:53:31;102015.81;;;20.67;100.00
64192;BME280;50497;50.720;-2.084;2022-07-03T11:56:08;102016.03;;;20.64;100.00
64192;BME280;50497;50.720;-2.084;2022-07-03T11:58:52;102021.06;;;20.43;100.00
64192;BME280;50497;50.720;-2.084;2022-07-03T12:03:46;102035.53;;;19.76;100.00
64192;BME280;50497;50.720;-2.084;2022-07-03T12:06:12;102021.00;;;19.90;100.00
64192;BME280;50497;50.720;-2.084;2022-07-03T12:08:38;102029.38;;;19.87;100.00
64192;BME280;50497;50.720;-2.084;2022-07-03T12:11:08;102020.22;;;20.02;100.00
64192;BME280;50497;50.720;-2.084;2022-07-03T12:13:35;102037.09;;;19.93;100.00
64192;BME280;50497;50.720;-2.084;2022-07-03T12:16:06;102032.59;;;20.06;100.00
64192;BME280;50497;50.720;-2.084;2022-07-03T12:18:52;102033.47;;;20.34;100.00
64192;BME280;50497;50.720;-2.084;2022-07-03T12:21:20;102028.69;;;20.38;100.00
64192;BME280;50497;50.720;-2.084;2022-07-03T12:23:55;102026.59;;;20.69;100.00
64192;BME280;50497;50.720;-2.084;2022-07-03T12:26:31;102021.91;;;20.96;100.00
64192;BME280;50497;50.720;-2.084;2022-07-03T12:29:02;102011.13;;;21.20;100.00
64192;BME280;50497;50.720;-2.084;2022-07-03T12:31:28;102016.78;;;21.80;100.00
64192;BME280;50497;50.720;-2.084;2022-07-03T12:33:56;102027.47;;;22.31;100.00
64192;BME280;50497;50.720;-2.084;2022-07-03T12:36:22;102023.16;;;22.40;100.00
64192;BME280;50497;50.720;-2.084;2022-07-03T12:38:51;102020.50;;;22.63;100.00
64192;BME280;50497;50.720;-2.084;2022-07-03T12:41:17;102023.94;;;23.12;100.00
64192;BME280;50497;50.720;-2.084;2022-07-03T12:43:46;102024.91;;;23.11;100.00
64192;BME280;50497;50.720;-2.084;2022-07-03T12:51:15;102025.25;;;22.83;100.00
64192;BME280;50497;50.720;-2.084;2022-07-03T12:53:41;102018.41;;;22.89;96.71
64192;BME280;50497;50.720;-2.084;2022-07-03T12:56:08;102018.81;;;22.96;94.98
64192;BME280;50497;50.720;-2.084;2022-07-03T12:58:35;102016.63;;;23.35;95.59
64192;BME280;50497;50.720;-2.084;2022-07-03T13:01:30;102014.53;;;23.93;93.77
64192;BME280;50497;50.720;-2.084;2022-07-03T13:03:58;102023.66;;;23.71;89.97
64192;BME280;50497;50.720;-2.084;2022-07-03T13:06:25;102017.03;;;24.29;89.76
64192;BME280;50497;50.720;-2.084;2022-07-03T13:08:57;102016.59;;;24.66;83.70
64192;BME280;50497;50.720;-2.084;2022-07-03T13:11:31;102014.53;;;24.58;77.06
64192;BME280;50497;50.720;-2.084;2022-07-03T13:16:38;102013.47;;;25.01;79.13
64192;BME280;50497;50.720;-2.084;2022-07-03T13:19:05;102016.94;;;24.73;79.81
64192;BME280;50497;50.720;-2.084;2022-07-03T13:21:31;102010.69;;;24.49;85.27
64192;BME280;50497;50.720;-2.084;2022-07-03T13:23:57;102002.38;;;24.19;84.99
64192;BME280;50497;50.720;-2.084;2022-07-03T13:26:22;102021.84;;;23.49;86.63
64192;BME280;50497;50.720;-2.084;2022-07-03T13:28:48;102015.44;;;22.81;100.00
64192;BME280;50497;50.720;-2.084;2022-07-03T13:31:13;102025.31;;;22.59;100.00
64192;BME280;50497;50.720;-2.084;2022-07-03T13:33:39;102032.72;;;21.98;100.00
64192;BME280;50497;50.720;-2.084;2022-07-03T13:36:04;102039.41;;;21.44;100.00
64192;BME280;50497;50.720;-2.084;2022-07-03T13:38:30;102046.28;;;20.72;100.00
64192;BME280;50497;50.720;-2.084;2022-07-03T13:40:55;102054.75;;;20.40;100.00
64192;BME280;50497;50.720;-2.084;2022-07-03T13:43:21;102051.97;;;20.15;100.00
64192;BME280;50497;50.720;-2.084;2022-07-03T13:45:47;102056.88;;;19.95;100.00
64192;BME280;50497;50.720;-2.084;2022-07-03T13:48:12;102061.56;;;19.93;100.00
64192;BME280;50497;50.720;-2.084;2022-07-03T13:50:40;102062.50;;;19.92;100.00
64192;BME280;50497;50.720;-2.084;2022-07-03T13:53:06;102055.38;;;19.91;100.00
64192;BME280;50497;50.720;-2.084;2022-07-03T13:55:31;102060.03;;;19.89;100.00
64192;BME280;50497;50.720;-2.084;2022-07-03T13:57:57;102052.81;;;20.02;100.00
64192;BME280;50497;50.720;-2.084;2022-07-03T14:00:22;102056.72;;;19.84;100.00
64192;BME280;50497;50.720;-2.084;2022-07-03T14:02:48;102057.31;;;19.89;100.00
64192;BME280;50497;50.720;-2.084;2022-07-03T14:05:13;102059.94;;;20.18;100.00
64192;BME280;50497;50.720;-2.084;2022-07-03T14:07:39;102057.50;;;19.86;100.00
64192;BME280;50497;50.720;-2.084;2022-07-03T14:10:04;102054.63;;;20.02;100.00
64192;BME280;50497;50.720;-2.084;2022-07-03T14:12:30;102053.72;;;19.74;100.00
64192;BME280;50497;50.720;-2.084;2022-07-03T14:14:56;102061.75;;;19.90;100.00